Beaudry, Arkansas
Current Conditions -  °F | °C
As of 9:53 AM on Thursday 23 Oct 2014 (Local Time) from KHOT Reporting Station
Clear Clear  
Wind Chill: 55°   Ceiling: Unl
Heat Index: 55°   Visibility: 10mi
Dew Point: 46°   Wind: 3mph
Humidity: 72%   Direction: 120°ESE
Pressure: 30.22"   Gusts: NA
Location:  34.7091°N, 93.2208°W
Report Text: KHOT 231453Z AUTO 12003KT 10SM CLR 13/08 A3022 RMK AO2 SLP230 T01280078 53008
Loading
Personal Weather Stations






























Interactive Weather Map
Tropical Storm Tracking
New forecast layout! Learn more

10-Day Weather Forecast

Advertisements
Track Severe Weather on mobile